sensor_id;sensor_type;location;lat;lon;timestamp;P1;durP1;ratioP1;P2;durP2;ratioP2
80510;SDS011;69840;53.040;8.600;2023-08-08T00:01:54;2.60;;;1.35;;
80510;SDS011;69840;53.040;8.600;2023-08-08T00:06:06;3.50;;;0.95;;
80510;SDS011;69840;53.040;8.600;2023-08-08T00:10:19;4.45;;;1.55;;
80510;SDS011;69840;53.040;8.600;2023-08-08T00:14:31;1.60;;;1.17;;
80510;SDS011;69840;53.040;8.600;2023-08-08T00:18:44;1.98;;;1.38;;
80510;SDS011;69840;53.040;8.600;2023-08-08T00:22:56;3.13;;;2.03;;
80510;SDS011;69840;53.040;8.600;2023-08-08T00:27:09;4.75;;;1.42;;
80510;SDS011;69840;53.040;8.600;2023-08-08T00:31:22;1.90;;;1.30;;
80510;SDS011;69840;53.040;8.600;2023-08-08T00:35:34;3.15;;;0.98;;
80510;SDS011;69840;53.040;8.600;2023-08-08T00:39:47;2.80;;;1.17;;
80510;SDS011;69840;53.040;8.600;2023-08-08T00:44:00;3.15;;;1.33;;
80510;SDS011;69840;53.040;8.600;2023-08-08T00:48:13;5.00;;;1.67;;
80510;SDS011;69840;53.040;8.600;2023-08-08T00:52:25;3.33;;;1.45;;
80510;SDS011;69840;53.040;8.600;2023-08-08T00:56:40;3.88;;;1.23;;
80510;SDS011;69840;53.040;8.600;2023-08-08T01:00:52;3.00;;;1.63;;
80510;SDS011;69840;53.040;8.600;2023-08-08T01:05:07;3.55;;;1.40;;
80510;SDS011;69840;53.040;8.600;2023-08-08T01:09:30;3.17;;;1.52;;
80510;SDS011;69840;53.040;8.600;2023-08-08T01:13:58;6.65;;;1.92;;
80510;SDS011;69840;53.040;8.600;2023-08-08T01:18:12;3.28;;;1.17;;
80510;SDS011;69840;53.040;8.600;2023-08-08T01:22:25;4.70;;;2.00;;
80510;SDS011;69840;53.040;8.600;2023-08-08T01:26:43;3.53;;;1.92;;
80510;SDS011;69840;53.040;8.600;2023-08-08T01:30:56;2.60;;;1.55;;
80510;SDS011;69840;53.040;8.600;2023-08-08T01:35:09;2.47;;;1.75;;
80510;SDS011;69840;53.040;8.600;2023-08-08T01:39:22;2.42;;;1.45;;
80510;SDS011;69840;53.040;8.600;2023-08-08T01:43:40;2.58;;;1.63;;
80510;SDS011;69840;53.040;8.600;2023-08-08T01:47:53;3.88;;;1.52;;
80510;SDS011;69840;53.040;8.600;2023-08-08T01:52:07;2.15;;;1.58;;
80510;SDS011;69840;53.040;8.600;2023-08-08T01:56:20;3.13;;;1.63;;
80510;SDS011;69840;53.040;8.600;2023-08-08T02:00:33;4.75;;;2.50;;
80510;SDS011;69840;53.040;8.600;2023-08-08T02:04:45;3.67;;;2.15;;
80510;SDS011;69840;53.040;8.600;2023-08-08T02:08:58;3.72;;;2.05;;
80510;SDS011;69840;53.040;8.600;2023-08-08T02:13:11;4.63;;;2.58;;
80510;SDS011;69840;53.040;8.600;2023-08-08T02:17:24;3.78;;;1.80;;
80510;SDS011;69840;53.040;8.600;2023-08-08T02:21:37;6.68;;;2.03;;
80510;SDS011;69840;53.040;8.600;2023-08-08T02:25:50;3.22;;;2.05;;
80510;SDS011;69840;53.040;8.600;2023-08-08T02:30:02;6.18;;;1.95;;
80510;SDS011;69840;53.040;8.600;2023-08-08T02:34:15;3.42;;;2.08;;
80510;SDS011;69840;53.040;8.600;2023-08-08T02:38:28;3.83;;;2.35;;
80510;SDS011;69840;53.040;8.600;2023-08-08T02:42:40;3.92;;;2.67;;
80510;SDS011;69840;53.040;8.600;2023-08-08T02:46:53;4.85;;;2.47;;
80510;SDS011;69840;53.040;8.600;2023-08-08T02:51:05;4.75;;;2.40;;
80510;SDS011;69840;53.040;8.600;2023-08-08T02:55:18;4.85;;;2.72;;
80510;SDS011;69840;53.040;8.600;2023-08-08T02:59:34;4.25;;;1.95;;
80510;SDS011;69840;53.040;8.600;2023-08-08T03:03:49;4.10;;;2.53;;
80510;SDS011;69840;53.040;8.600;2023-08-08T03:08:05;4.75;;;2.42;;
80510;SDS011;69840;53.040;8.600;2023-08-08T03:12:18;4.07;;;2.53;;
80510;SDS011;69840;53.040;8.600;2023-08-08T03:16:32;3.95;;;3.08;;
80510;SDS011;69840;53.040;8.600;2023-08-08T03:20:46;3.47;;;2.15;;
80510;SDS011;69840;53.040;8.600;2023-08-08T03:24:59;3.40;;;2.13;;
80510;SDS011;69840;53.040;8.600;2023-08-08T03:29:12;4.78;;;1.95;;
80510;SDS011;69840;53.040;8.600;2023-08-08T03:37:42;5.30;;;2.33;;
80510;SDS011;69840;53.040;8.600;2023-08-08T03:41:56;5.70;;;2.42;;
80510;SDS011;69840;53.040;8.600;2023-08-08T03:46:09;6.40;;;2.25;;
80510;SDS011;69840;53.040;8.600;2023-08-08T03:50:22;4.40;;;2.30;;
80510;SDS011;69840;53.040;8.600;2023-08-08T03:54:34;2.67;;;1.75;;
80510;SDS011;69840;53.040;8.600;2023-08-08T03:58:47;3.85;;;2.40;;
80510;SDS011;69840;53.040;8.600;2023-08-08T04:03:00;5.00;;;2.70;;
80510;SDS011;69840;53.040;8.600;2023-08-08T04:07:12;4.00;;;2.40;;
80510;SDS011;69840;53.040;8.600;2023-08-08T04:11:25;3.67;;;2.30;;
80510;SDS011;69840;53.040;8.600;2023-08-08T04:15:38;8.52;;;2.47;;
80510;SDS011;69840;53.040;8.600;2023-08-08T04:19:51;7.65;;;2.08;;
80510;SDS011;69840;53.040;8.600;2023-08-08T04:24:03;6.53;;;3.17;;
80510;SDS011;69840;53.040;8.600;2023-08-08T04:28:16;5.80;;;2.28;;
80510;SDS011;69840;53.040;8.600;2023-08-08T04:32:28;5.10;;;2.33;;
80510;SDS011;69840;53.040;8.600;2023-08-08T04:36:41;6.30;;;2.05;;
80510;SDS011;69840;53.040;8.600;2023-08-08T04:40:53;3.45;;;1.92;;
80510;SDS011;69840;53.040;8.600;2023-08-08T04:45:06;6.28;;;2.42;;
80510;SDS011;69840;53.040;8.600;2023-08-08T04:49:19;7.00;;;2.28;;
80510;SDS011;69840;53.040;8.600;2023-08-08T04:53:32;3.95;;;2.08;;
80510;SDS011;69840;53.040;8.600;2023-08-08T04:57:44;4.80;;;2.60;;
80510;SDS011;69840;53.040;8.600;2023-08-08T05:01:57;4.47;;;2.97;;
80510;SDS011;69840;53.040;8.600;2023-08-08T05:06:09;5.25;;;1.92;;
80510;SDS011;69840;53.040;8.600;2023-08-08T05:10:22;5.13;;;2.20;;
80510;SDS011;69840;53.040;8.600;2023-08-08T05:14:34;5.80;;;2.53;;
80510;SDS011;69840;53.040;8.600;2023-08-08T05:18:47;4.70;;;2.15;;
80510;SDS011;69840;53.040;8.600;2023-08-08T05:22:59;7.03;;;2.53;;
80510;SDS011;69840;53.040;8.600;2023-08-08T05:27:12;5.80;;;2.67;;
80510;SDS011;69840;53.040;8.600;2023-08-08T05:31:24;3.55;;;1.88;;
80510;SDS011;69840;53.040;8.600;2023-08-08T05:35:37;4.72;;;2.65;;
80510;SDS011;69840;53.040;8.600;2023-08-08T05:39:49;4.40;;;2.20;;
80510;SDS011;69840;53.040;8.600;2023-08-08T05:44:02;5.63;;;2.08;;
80510;SDS011;69840;53.040;8.600;2023-08-08T05:48:14;4.38;;;2.03;;
80510;SDS011;69840;53.040;8.600;2023-08-08T05:52:27;3.33;;;1.90;;
80510;SDS011;69840;53.040;8.600;2023-08-08T05:56:39;6.90;;;1.77;;
80510;SDS011;69840;53.040;8.600;2023-08-08T06:00:52;6.40;;;1.98;;
80510;SDS011;69840;53.040;8.600;2023-08-08T06:05:05;5.70;;;1.92;;
80510;SDS011;69840;53.040;8.600;2023-08-08T06:09:18;6.32;;;2.83;;
80510;SDS011;69840;53.040;8.600;2023-08-08T06:13:30;5.20;;;1.80;;
80510;SDS011;69840;53.040;8.600;2023-08-08T06:17:43;3.55;;;1.92;;
80510;SDS011;69840;53.040;8.600;2023-08-08T06:21:56;2.05;;;1.23;;
80510;SDS011;69840;53.040;8.600;2023-08-08T06:26:08;3.80;;;1.88;;
80510;SDS011;69840;53.040;8.600;2023-08-08T06:30:21;3.88;;;1.98;;
80510;SDS011;69840;53.040;8.600;2023-08-08T06:34:33;2.95;;;1.55;;
80510;SDS011;69840;53.040;8.600;2023-08-08T06:38:46;3.50;;;1.52;;
80510;SDS011;69840;53.040;8.600;2023-08-08T06:42:58;7.88;;;2.05;;
80510;SDS011;69840;53.040;8.600;2023-08-08T06:47:11;6.78;;;1.80;;
80510;SDS011;69840;53.040;8.600;2023-08-08T06:51:24;3.13;;;1.23;;
80510;SDS011;69840;53.040;8.600;2023-08-08T06:55:37;6.25;;;1.85;;
80510;SDS011;69840;53.040;8.600;2023-08-08T06:59:49;3.72;;;1.20;;
80510;SDS011;69840;53.040;8.600;2023-08-08T07:04:02;2.22;;;0.85;;
80510;SDS011;69840;53.040;8.600;2023-08-08T07:08:15;2.33;;;1.45;;
80510;SDS011;69840;53.040;8.600;2023-08-08T07:12:27;2.22;;;0.77;;
80510;SDS011;69840;53.040;8.600;2023-08-08T07:16:40;4.55;;;1.45;;
80510;SDS011;69840;53.040;8.600;2023-08-08T07:20:52;7.10;;;1.15;;
80510;SDS011;69840;53.040;8.600;2023-08-08T07:25:05;3.53;;;1.10;;
80510;SDS011;69840;53.040;8.600;2023-08-08T07:29:18;5.65;;;0.95;;
80510;SDS011;69840;53.040;8.600;2023-08-08T07:33:30;4.32;;;0.88;;
80510;SDS011;69840;53.040;8.600;2023-08-08T07:37:43;4.25;;;1.08;;
80510;SDS011;69840;53.040;8.600;2023-08-08T07:41:55;1.08;;;0.77;;
80510;SDS011;69840;53.040;8.600;2023-08-08T07:46:08;6.72;;;1.98;;
80510;SDS011;69840;53.040;8.600;2023-08-08T07:50:20;1.70;;;0.57;;
80510;SDS011;69840;53.040;8.600;2023-08-08T07:54:33;5.20;;;1.55;;
80510;SDS011;69840;53.040;8.600;2023-08-08T07:58:47;1.98;;;0.93;;
80510;SDS011;69840;53.040;8.600;2023-08-08T08:02:59;1.60;;;0.57;;
80510;SDS011;69840;53.040;8.600;2023-08-08T08:07:12;2.22;;;0.63;;
80510;SDS011;69840;53.040;8.600;2023-08-08T08:11:25;4.72;;;1.02;;
80510;SDS011;69840;53.040;8.600;2023-08-08T08:15:38;3.97;;;1.00;;
80510;SDS011;69840;53.040;8.600;2023-08-08T08:19:50;4.45;;;1.05;;
80510;SDS011;69840;53.040;8.600;2023-08-08T08:24:03;1.20;;;0.63;;
80510;SDS011;69840;53.040;8.600;2023-08-08T08:28:16;1.92;;;0.73;;
80510;SDS011;69840;53.040;8.600;2023-08-08T08:32:31;3.25;;;1.20;;
80510;SDS011;69840;53.040;8.600;2023-08-08T08:36:44;1.75;;;0.50;;
80510;SDS011;69840;53.040;8.600;2023-08-08T08:40:57;2.13;;;0.82;;
80510;SDS011;69840;53.040;8.600;2023-08-08T08:45:11;2.15;;;0.43;;
80510;SDS011;69840;53.040;8.600;2023-08-08T08:49:24;1.02;;;0.40;;
80510;SDS011;69840;53.040;8.600;2023-08-08T08:53:38;1.60;;;0.60;;
80510;SDS011;69840;53.040;8.600;2023-08-08T08:57:50;2.63;;;0.63;;
80510;SDS011;69840;53.040;8.600;2023-08-08T09:02:03;5.43;;;0.75;;
80510;SDS011;69840;53.040;8.600;2023-08-08T09:06:16;4.25;;;1.50;;
80510;SDS011;69840;53.040;8.600;2023-08-08T09:10:30;3.00;;;1.15;;
80510;SDS011;69840;53.040;8.600;2023-08-08T09:14:44;3.20;;;0.57;;
80510;SDS011;69840;53.040;8.600;2023-08-08T09:18:56;5.15;;;0.82;;
80510;SDS011;69840;53.040;8.600;2023-08-08T09:23:09;4.03;;;0.55;;
80510;SDS011;69840;53.040;8.600;2023-08-08T09:27:21;2.97;;;0.57;;
80510;SDS011;69840;53.040;8.600;2023-08-08T09:31:34;1.02;;;0.55;;
80510;SDS011;69840;53.040;8.600;2023-08-08T09:35:47;1.60;;;0.75;;
80510;SDS011;69840;53.040;8.600;2023-08-08T09:40:00;1.45;;;0.52;;
80510;SDS011;69840;53.040;8.600;2023-08-08T09:44:15;0.90;;;0.43;;
80510;SDS011;69840;53.040;8.600;2023-08-08T09:48:31;1.73;;;0.73;;
80510;SDS011;69840;53.040;8.600;2023-08-08T09:52:45;2.65;;;0.68;;
80510;SDS011;69840;53.040;8.600;2023-08-08T09:56:58;3.80;;;0.63;;
80510;SDS011;69840;53.040;8.600;2023-08-08T10:01:12;2.95;;;0.85;;
80510;SDS011;69840;53.040;8.600;2023-08-08T10:05:26;0.88;;;0.47;;
80510;SDS011;69840;53.040;8.600;2023-08-08T10:09:42;1.70;;;0.75;;
80510;SDS011;69840;53.040;8.600;2023-08-08T10:13:54;2.38;;;0.80;;
80510;SDS011;69840;53.040;8.600;2023-08-08T10:18:07;3.33;;;0.93;;
80510;SDS011;69840;53.040;8.600;2023-08-08T10:22:21;1.67;;;0.47;;
80510;SDS011;69840;53.040;8.600;2023-08-08T10:26:50;1.25;;;0.57;;
80510;SDS011;69840;53.040;8.600;2023-08-08T10:31:15;0.60;;;0.32;;
80510;SDS011;69840;53.040;8.600;2023-08-08T10:35:34;1.45;;;0.98;;
80510;SDS011;69840;53.040;8.600;2023-08-08T10:39:53;2.28;;;0.60;;
80510;SDS011;69840;53.040;8.600;2023-08-08T10:44:08;2.40;;;0.32;;
80510;SDS011;69840;53.040;8.600;2023-08-08T10:48:21;0.65;;;0.43;;
80510;SDS011;69840;53.040;8.600;2023-08-08T10:57:02;2.25;;;0.52;;
80510;SDS011;69840;53.040;8.600;2023-08-08T11:01:15;1.40;;;0.47;;
80510;SDS011;69840;53.040;8.600;2023-08-08T11:05:28;1.48;;;0.65;;
80510;SDS011;69840;53.040;8.600;2023-08-08T11:09:42;3.40;;;0.93;;
80510;SDS011;69840;53.040;8.600;2023-08-08T11:13:55;2.85;;;0.50;;
80510;SDS011;69840;53.040;8.600;2023-08-08T11:18:08;0.82;;;0.38;;
80510;SDS011;69840;53.040;8.600;2023-08-08T11:22:21;0.77;;;0.60;;
80510;SDS011;69840;53.040;8.600;2023-08-08T11:26:34;2.47;;;0.68;;
80510;SDS011;69840;53.040;8.600;2023-08-08T11:30:48;2.67;;;0.50;;
80510;SDS011;69840;53.040;8.600;2023-08-08T11:35:01;1.75;;;0.85;;
80510;SDS011;69840;53.040;8.600;2023-08-08T11:39:14;0.90;;;0.75;;
80510;SDS011;69840;53.040;8.600;2023-08-08T11:43:26;3.00;;;0.55;;
80510;SDS011;69840;53.040;8.600;2023-08-08T11:47:39;0.82;;;0.35;;
80510;SDS011;69840;53.040;8.600;2023-08-08T11:51:53;1.42;;;0.82;;
80510;SDS011;69840;53.040;8.600;2023-08-08T11:56:06;4.07;;;0.90;;
80510;SDS011;69840;53.040;8.600;2023-08-08T12:00:19;2.25;;;0.70;;
80510;SDS011;69840;53.040;8.600;2023-08-08T12:04:31;3.38;;;0.68;;
80510;SDS011;69840;53.040;8.600;2023-08-08T12:08:44;1.67;;;1.35;;
80510;SDS011;69840;53.040;8.600;2023-08-08T12:12:59;2.22;;;0.55;;
80510;SDS011;69840;53.040;8.600;2023-08-08T12:17:12;1.75;;;0.85;;
80510;SDS011;69840;53.040;8.600;2023-08-08T12:21:25;2.20;;;0.60;;
80510;SDS011;69840;53.040;8.600;2023-08-08T12:25:38;1.98;;;0.80;;
80510;SDS011;69840;53.040;8.600;2023-08-08T12:29:51;2.92;;;0.75;;
80510;SDS011;69840;53.040;8.600;2023-08-08T12:34:03;1.42;;;0.90;;
80510;SDS011;69840;53.040;8.600;2023-08-08T12:38:16;1.40;;;0.93;;
80510;SDS011;69840;53.040;8.600;2023-08-08T12:42:28;2.03;;;0.80;;
80510;SDS011;69840;53.040;8.600;2023-08-08T12:46:41;1.67;;;0.73;;
80510;SDS011;69840;53.040;8.600;2023-08-08T12:50:53;1.35;;;0.52;;
80510;SDS011;69840;53.040;8.600;2023-08-08T12:55:06;2.05;;;0.63;;
80510;SDS011;69840;53.040;8.600;2023-08-08T12:59:19;4.78;;;0.70;;
80510;SDS011;69840;53.040;8.600;2023-08-08T13:03:32;3.22;;;0.82;;
80510;SDS011;69840;53.040;8.600;2023-08-08T13:07:44;2.70;;;0.70;;
80510;SDS011;69840;53.040;8.600;2023-08-08T13:11:57;1.13;;;0.60;;
80510;SDS011;69840;53.040;8.600;2023-08-08T13:16:09;1.30;;;0.52;;
80510;SDS011;69840;53.040;8.600;2023-08-08T13:20:22;2.17;;;0.70;;
80510;SDS011;69840;53.040;8.600;2023-08-08T13:24:35;2.15;;;0.85;;
80510;SDS011;69840;53.040;8.600;2023-08-08T13:28:47;4.03;;;0.68;;
80510;SDS011;69840;53.040;8.600;2023-08-08T13:33:00;7.82;;;0.93;;
80510;SDS011;69840;53.040;8.600;2023-08-08T13:37:13;4.18;;;0.88;;
80510;SDS011;69840;53.040;8.600;2023-08-08T13:41:26;0.98;;;0.88;;
80510;SDS011;69840;53.040;8.600;2023-08-08T13:45:39;1.98;;;0.32;;
80510;SDS011;69840;53.040;8.600;2023-08-08T13:49:51;5.38;;;0.75;;
80510;SDS011;69840;53.040;8.600;2023-08-08T13:54:04;0.82;;;0.35;;
80510;SDS011;69840;53.040;8.600;2023-08-08T13:58:16;1.27;;;0.50;;
80510;SDS011;69840;53.040;8.600;2023-08-08T14:02:29;1.05;;;0.60;;
80510;SDS011;69840;53.040;8.600;2023-08-08T14:06:41;1.15;;;0.50;;
80510;SDS011;69840;53.040;8.600;2023-08-08T14:10:54;2.35;;;0.80;;
80510;SDS011;69840;53.040;8.600;2023-08-08T14:15:06;1.80;;;0.70;;
80510;SDS011;69840;53.040;8.600;2023-08-08T14:19:19;0.85;;;0.50;;
80510;SDS011;69840;53.040;8.600;2023-08-08T14:23:32;3.50;;;0.73;;
80510;SDS011;69840;53.040;8.600;2023-08-08T14:27:44;2.03;;;1.23;;
80510;SDS011;69840;53.040;8.600;2023-08-08T14:31:57;4.20;;;0.73;;
80510;SDS011;69840;53.040;8.600;2023-08-08T14:36:11;2.05;;;0.43;;
80510;SDS011;69840;53.040;8.600;2023-08-08T14:40:24;2.80;;;0.75;;
80510;SDS011;69840;53.040;8.600;2023-08-08T14:44:36;5.63;;;0.65;;
80510;SDS011;69840;53.040;8.600;2023-08-08T14:48:49;3.72;;;0.82;;
80510;SDS011;69840;53.040;8.600;2023-08-08T14:53:01;0.95;;;0.73;;
80510;SDS011;69840;53.040;8.600;2023-08-08T14:57:14;2.58;;;0.35;;
80510;SDS011;69840;53.040;8.600;2023-08-08T15:01:26;2.92;;;0.68;;
80510;SDS011;69840;53.040;8.600;2023-08-08T15:05:39;2.45;;;0.75;;
80510;SDS011;69840;53.040;8.600;2023-08-08T15:09:52;7.45;;;0.88;;
80510;SDS011;69840;53.040;8.600;2023-08-08T15:14:05;1.90;;;0.63;;
80510;SDS011;69840;53.040;8.600;2023-08-08T15:18:17;4.22;;;0.73;;
80510;SDS011;69840;53.040;8.600;2023-08-08T15:22:30;0.82;;;0.43;;
80510;SDS011;69840;53.040;8.600;2023-08-08T15:26:42;4.18;;;0.47;;
80510;SDS011;69840;53.040;8.600;2023-08-08T15:30:55;1.83;;;0.45;;
80510;SDS011;69840;53.040;8.600;2023-08-08T15:35:08;2.17;;;0.85;;
80510;SDS011;69840;53.040;8.600;2023-08-08T15:39:20;1.05;;;0.43;;
80510;SDS011;69840;53.040;8.600;2023-08-08T15:43:33;1.95;;;0.82;;
80510;SDS011;69840;53.040;8.600;2023-08-08T15:47:45;2.08;;;1.05;;
80510;SDS011;69840;53.040;8.600;2023-08-08T15:51:58;2.45;;;1.00;;
80510;SDS011;69840;53.040;8.600;2023-08-08T15:56:10;1.98;;;0.88;;
80510;SDS011;69840;53.040;8.600;2023-08-08T16:00:23;1.45;;;0.52;;
80510;SDS011;69840;53.040;8.600;2023-08-08T16:04:36;5.03;;;0.82;;
80510;SDS011;69840;53.040;8.600;2023-08-08T16:08:49;4.35;;;0.90;;
80510;SDS011;69840;53.040;8.600;2023-08-08T16:13:02;1.70;;;0.60;;
80510;SDS011;69840;53.040;8.600;2023-08-08T16:17:15;1.40;;;0.60;;
80510;SDS011;69840;53.040;8.600;2023-08-08T16:21:27;1.55;;;0.80;;
80510;SDS011;69840;53.040;8.600;2023-08-08T16:25:40;3.30;;;0.52;;
80510;SDS011;69840;53.040;8.600;2023-08-08T16:29:52;1.50;;;0.90;;
80510;SDS011;69840;53.040;8.600;2023-08-08T16:34:05;3.42;;;0.85;;
80510;SDS011;69840;53.040;8.600;2023-08-08T16:38:17;1.30;;;0.63;;
80510;SDS011;69840;53.040;8.600;2023-08-08T16:42:30;5.80;;;0.70;;
80510;SDS011;69840;53.040;8.600;2023-08-08T16:46:42;2.15;;;0.73;;
80510;SDS011;69840;53.040;8.600;2023-08-08T16:50:55;3.47;;;1.38;;
80510;SDS011;69840;53.040;8.600;2023-08-08T16:55:07;1.50;;;0.50;;
80510;SDS011;69840;53.040;8.600;2023-08-08T16:59:20;1.35;;;0.50;;
80510;SDS011;69840;53.040;8.600;2023-08-08T17:03:33;1.00;;;0.63;;
80510;SDS011;69840;53.040;8.600;2023-08-08T17:07:45;4.95;;;0.73;;
80510;SDS011;69840;53.040;8.600;2023-08-08T17:11:58;0.95;;;0.60;;
80510;SDS011;69840;53.040;8.600;2023-08-08T17:16:10;3.25;;;1.45;;
80510;SDS011;69840;53.040;8.600;2023-08-08T17:20:23;0.85;;;0.40;;
80510;SDS011;69840;53.040;8.600;2023-08-08T17:24:35;3.20;;;0.60;;
80510;SDS011;69840;53.040;8.600;2023-08-08T17:28:51;4.10;;;0.63;;
80510;SDS011;69840;53.040;8.600;2023-08-08T17:33:03;1.05;;;0.52;;
80510;SDS011;69840;53.040;8.600;2023-08-08T17:37:16;1.88;;;0.95;;
80510;SDS011;69840;53.040;8.600;2023-08-08T17:41:28;2.55;;;0.55;;
80510;SDS011;69840;53.040;8.600;2023-08-08T17:45:41;2.47;;;0.38;;
80510;SDS011;69840;53.040;8.600;2023-08-08T17:49:53;2.78;;;0.65;;
80510;SDS011;69840;53.040;8.600;2023-08-08T17:54:06;2.22;;;0.77;;
80510;SDS011;69840;53.040;8.600;2023-08-08T17:58:18;1.88;;;0.52;;
80510;SDS011;69840;53.040;8.600;2023-08-08T18:02:31;0.88;;;0.38;;
80510;SDS011;69840;53.040;8.600;2023-08-08T18:06:43;1.00;;;0.65;;
80510;SDS011;69840;53.040;8.600;2023-08-08T18:10:56;1.88;;;0.95;;
80510;SDS011;69840;53.040;8.600;2023-08-08T18:15:08;3.53;;;0.75;;
80510;SDS011;69840;53.040;8.600;2023-08-08T18:19:22;0.80;;;0.32;;
80510;SDS011;69840;53.040;8.600;2023-08-08T18:23:34;1.77;;;0.52;;
80510;SDS011;69840;53.040;8.600;2023-08-08T18:27:47;1.13;;;0.60;;
80510;SDS011;69840;53.040;8.600;2023-08-08T18:31:59;1.63;;;0.63;;
80510;SDS011;69840;53.040;8.600;2023-08-08T18:36:12;2.33;;;0.57;;
80510;SDS011;69840;53.040;8.600;2023-08-08T18:40:24;5.25;;;0.73;;
80510;SDS011;69840;53.040;8.600;2023-08-08T18:44:37;0.98;;;0.70;;
80510;SDS011;69840;53.040;8.600;2023-08-08T18:48:50;3.17;;;0.73;;
80510;SDS011;69840;53.040;8.600;2023-08-08T18:53:02;2.58;;;1.38;;
80510;SDS011;69840;53.040;8.600;2023-08-08T18:57:15;0.85;;;0.50;;
80510;SDS011;69840;53.040;8.600;2023-08-08T19:01:28;0.90;;;0.80;;
80510;SDS011;69840;53.040;8.600;2023-08-08T19:05:40;3.20;;;0.80;;
80510;SDS011;69840;53.040;8.600;2023-08-08T19:09:53;4.18;;;0.70;;
80510;SDS011;69840;53.040;8.600;2023-08-08T19:14:05;3.00;;;0.40;;
80510;SDS011;69840;53.040;8.600;2023-08-08T19:18:18;3.50;;;0.45;;
80510;SDS011;69840;53.040;8.600;2023-08-08T19:22:31;4.00;;;0.90;;
80510;SDS011;69840;53.040;8.600;2023-08-08T19:26:43;1.85;;;0.35;;
80510;SDS011;69840;53.040;8.600;2023-08-08T19:30:56;3.53;;;1.33;;
80510;SDS011;69840;53.040;8.600;2023-08-08T19:35:09;0.73;;;0.50;;
80510;SDS011;69840;53.040;8.600;2023-08-08T19:39:21;2.17;;;0.52;;
80510;SDS011;69840;53.040;8.600;2023-08-08T19:43:34;3.10;;;0.55;;
80510;SDS011;69840;53.040;8.600;2023-08-08T19:47:46;2.22;;;0.68;;
80510;SDS011;69840;53.040;8.600;2023-08-08T19:51:59;0.60;;;0.47;;
80510;SDS011;69840;53.040;8.600;2023-08-08T19:56:11;2.53;;;0.77;;
80510;SDS011;69840;53.040;8.600;2023-08-08T20:00:24;2.00;;;0.68;;
80510;SDS011;69840;53.040;8.600;2023-08-08T20:04:40;2.65;;;0.90;;
80510;SDS011;69840;53.040;8.600;2023-08-08T20:08:52;4.57;;;1.05;;
80510;SDS011;69840;53.040;8.600;2023-08-08T20:13:05;1.42;;;0.60;;
80510;SDS011;69840;53.040;8.600;2023-08-08T20:17:17;0.68;;;0.65;;
80510;SDS011;69840;53.040;8.600;2023-08-08T20:21:30;2.30;;;0.75;;
80510;SDS011;69840;53.040;8.600;2023-08-08T20:25:43;3.22;;;0.63;;
80510;SDS011;69840;53.040;8.600;2023-08-08T20:29:56;1.83;;;0.82;;
80510;SDS011;69840;53.040;8.600;2023-08-08T20:34:08;2.75;;;0.52;;
80510;SDS011;69840;53.040;8.600;2023-08-08T20:38:21;1.52;;;0.80;;
80510;SDS011;69840;53.040;8.600;2023-08-08T20:42:33;2.92;;;0.55;;
80510;SDS011;69840;53.040;8.600;2023-08-08T20:46:46;6.72;;;0.80;;
80510;SDS011;69840;53.040;8.600;2023-08-08T20:50:58;8.40;;;1.02;;
80510;SDS011;69840;53.040;8.600;2023-08-08T20:55:11;1.98;;;0.82;;
80510;SDS011;69840;53.040;8.600;2023-08-08T20:59:26;3.30;;;0.73;;
80510;SDS011;69840;53.040;8.600;2023-08-08T21:03:39;2.72;;;0.70;;
80510;SDS011;69840;53.040;8.600;2023-08-08T21:07:51;2.03;;;0.68;;
80510;SDS011;69840;53.040;8.600;2023-08-08T21:12:04;6.38;;;0.75;;
80510;SDS011;69840;53.040;8.600;2023-08-08T21:16:17;1.05;;;0.50;;
80510;SDS011;69840;53.040;8.600;2023-08-08T21:20:29;10.15;;;1.23;;
80510;SDS011;69840;53.040;8.600;2023-08-08T21:24:42;1.65;;;0.70;;
80510;SDS011;69840;53.040;8.600;2023-08-08T21:28:54;7.10;;;1.48;;
80510;SDS011;69840;53.040;8.600;2023-08-08T21:33:07;1.25;;;1.02;;
80510;SDS011;69840;53.040;8.600;2023-08-08T21:37:20;8.40;;;1.00;;
80510;SDS011;69840;53.040;8.600;2023-08-08T21:41:32;4.78;;;0.60;;
80510;SDS011;69840;53.040;8.600;2023-08-08T21:45:44;2.70;;;0.75;;
80510;SDS011;69840;53.040;8.600;2023-08-08T21:49:57;2.58;;;0.90;;
80510;SDS011;69840;53.040;8.600;2023-08-08T21:54:10;2.30;;;0.82;;
80510;SDS011;69840;53.040;8.600;2023-08-08T21:58:23;2.42;;;0.57;;
80510;SDS011;69840;53.040;8.600;2023-08-08T22:02:35;0.98;;;0.70;;
80510;SDS011;69840;53.040;8.600;2023-08-08T22:06:48;1.83;;;0.65;;
80510;SDS011;69840;53.040;8.600;2023-08-08T22:11:00;6.65;;;0.80;;
80510;SDS011;69840;53.040;8.600;2023-08-08T22:15:13;2.30;;;0.75;;
80510;SDS011;69840;53.040;8.600;2023-08-08T22:19:26;2.35;;;0.88;;
80510;SDS011;69840;53.040;8.600;2023-08-08T22:23:38;1.27;;;0.43;;
80510;SDS011;69840;53.040;8.600;2023-08-08T22:27:51;2.88;;;0.98;;
80510;SDS011;69840;53.040;8.600;2023-08-08T22:32:03;1.35;;;0.40;;
80510;SDS011;69840;53.040;8.600;2023-08-08T22:36:16;5.28;;;0.88;;
80510;SDS011;69840;53.040;8.600;2023-08-08T22:40:29;4.05;;;0.93;;
80510;SDS011;69840;53.040;8.600;2023-08-08T22:44:41;1.58;;;0.80;;
80510;SDS011;69840;53.040;8.600;2023-08-08T22:48:53;1.10;;;0.60;;
80510;SDS011;69840;53.040;8.600;2023-08-08T22:53:06;2.47;;;0.70;;
80510;SDS011;69840;53.040;8.600;2023-08-08T22:57:19;4.22;;;1.05;;
80510;SDS011;69840;53.040;8.600;2023-08-08T23:01:31;6.60;;;1.10;;
80510;SDS011;69840;53.040;8.600;2023-08-08T23:05:44;3.80;;;0.73;;
80510;SDS011;69840;53.040;8.600;2023-08-08T23:09:56;4.15;;;1.02;;
80510;SDS011;69840;53.040;8.600;2023-08-08T23:14:09;3.97;;;0.88;;
80510;SDS011;69840;53.040;8.600;2023-08-08T23:18:21;0.70;;;0.40;;
80510;SDS011;69840;53.040;8.600;2023-08-08T23:22:34;4.95;;;0.80;;
80510;SDS011;69840;53.040;8.600;2023-08-08T23:26:46;2.78;;;0.65;;
80510;SDS011;69840;53.040;8.600;2023-08-08T23:30:59;1.42;;;0.82;;
80510;SDS011;69840;53.040;8.600;2023-08-08T23:35:12;0.77;;;0.57;;
80510;SDS011;69840;53.040;8.600;2023-08-08T23:39:25;1.90;;;0.60;;
80510;SDS011;69840;53.040;8.600;2023-08-08T23:43:38;0.80;;;0.63;;
80510;SDS011;69840;53.040;8.600;2023-08-08T23:47:50;1.95;;;0.80;;
80510;SDS011;69840;53.040;8.600;2023-08-08T23:52:03;3.00;;;0.88;;
80510;SDS011;69840;53.040;8.600;2023-08-08T23:56:16;3.95;;;0.65;;
